Illusion — ZJL7875 — position and weather

sailwx.info

Track history (hours):
 
Tides and Currents Weather Stations Pressure Air Temp Water Temp Dewpoint Dewpoint Depression Visibility Wind Speed Wind Dir Waves Ship Positions

Illusion

Last reported at 2018-Jan-20 21:38 UTC. Time now 2018-Jan-23 00:07 UTC.
Position N 25°46' W 080°08'.

Length 22 m; draft 2.1 m.

Type: Sailing vessel. MMSI: 378111398.

Date/timePositionNaut miles runAvg speedWind from/ knotsBaromVisibWave heightAir tempDewpointWater temp
2018-Jan-20 21:38N 25°46' W 080°08'0 0.0
2018-Jan-20 21:23N 25°46' W 080°08'1 1.6
2018-Jan-20 21:00N 25°46' W 080°08'3 5.2
2018-Jan-20 20:30N 25°44' W 080°06'2 4.7
2018-Jan-20 20:00N 25°46' W 080°06'3 5.9
2018-Jan-20 19:30N 25°49' W 080°06'3 6.1
2018-Jan-20 19:00N 25°46' W 080°07'1 1.4
2018-Jan-20 17:57N 25°46' W 080°08'0 0.0
2018-Jan-20 17:29N 25°46' W 080°08'0 0.0
2018-Jan-20 17:00N 25°46' W 080°08'0 0.0
2018-Jan-20 16:30N 25°46' W 080°08'0 0.0
2018-Jan-20 16:01N 25°46' W 080°08'0 0.0
2018-Jan-20 15:31N 25°46' W 080°08'0 0.0
2018-Jan-19 22:38N 25°46' W 080°08'0 0.0
2018-Jan-19 22:30N 25°46' W 080°08'0 0.0
2018-Jan-19 22:00N 25°46' W 080°08'2 4.4
2018-Jan-19 21:31N 25°44' W 080°07'3 6.7
2018-Jan-19 21:00N 25°41' W 080°05'0 0.5
2018-Jan-19 20:31N 25°42' W 080°06'3 6.5
2018-Jan-19 20:00N 25°45' W 080°06'3 5.6
2018-Jan-19 19:31N 25°47' W 080°07'2 3.7
2018-Jan-19 19:00N 25°46' W 080°08'0 0.3
2018-Jan-19 18:19N 25°46' W 080°08'0 0.0
2018-Jan-19 17:52N 25°46' W 080°08'0 0.0
2018-Jan-19 17:22N 25°46' W 080°08'  
2018-Jan-11 03:55N 25°46' W 080°08'0 0.0
2018-Jan-11 03:10N 25°46' W 080°08'0 0.0
2018-Jan-11 02:37N 25°46' W 080°08'0 0.0
2018-Jan-11 02:25N 25°46' W 080°08'0 0.0
2018-Jan-11 01:58N 25°46' W 080°08'0 0.0
2018-Jan-11 01:25N 25°46' W 080°08'0 0.0
2018-Jan-11 00:58N 25°46' W 080°08'0 0.0
2018-Jan-11 00:25N 25°46' W 080°08'0 0.0
2018-Jan-10 23:58N 25°46' W 080°08'0 0.0
2018-Jan-10 23:13N 25°46' W 080°08'0 0.0
2018-Jan-10 22:58N 25°46' W 080°08'0 0.0
2018-Jan-10 22:25N 25°46' W 080°08'0 0.0
2018-Jan-10 21:58N 25°46' W 080°08'  
Track history (hours):
 
Tides and Currents Weather Stations Pressure Air Temp Water Temp Dewpoint Dewpoint Depression Visibility Wind Speed Wind Dir Waves Ship Positions

Illusion

Last reported at 2018-Jan-20 21:38 UTC. Time now 2018-Jan-23 00:07 UTC.
Position N 25°46' W 080°08'.

Length 22 m; draft 2.1 m.

Type: Sailing vessel. MMSI: 378111398.

Date/timePositionNaut miles runAvg speedWind from/ knotsBaromVisibWave heightAir tempDewpointWater temp
2018-Jan-20 21:38N 25°46' W 080°08'0 0.0
2018-Jan-20 21:23N 25°46' W 080°08'1 1.6
2018-Jan-20 21:00N 25°46' W 080°08'3 5.2
2018-Jan-20 20:30N 25°44' W 080°06'2 4.7
2018-Jan-20 20:00N 25°46' W 080°06'3 5.9
2018-Jan-20 19:30N 25°49' W 080°06'3 6.1
2018-Jan-20 19:00N 25°46' W 080°07'1 1.4
2018-Jan-20 17:57N 25°46' W 080°08'0 0.0
2018-Jan-20 17:29N 25°46' W 080°08'0 0.0
2018-Jan-20 17:00N 25°46' W 080°08'0 0.0
2018-Jan-20 16:30N 25°46' W 080°08'0 0.0
2018-Jan-20 16:01N 25°46' W 080°08'0 0.0
2018-Jan-20 15:31N 25°46' W 080°08'0 0.0
2018-Jan-19 22:38N 25°46' W 080°08'0 0.0
2018-Jan-19 22:30N 25°46' W 080°08'0 0.0
2018-Jan-19 22:00N 25°46' W 080°08'2 4.4
2018-Jan-19 21:31N 25°44' W 080°07'3 6.7
2018-Jan-19 21:00N 25°41' W 080°05'0 0.5
2018-Jan-19 20:31N 25°42' W 080°06'3 6.5
2018-Jan-19 20:00N 25°45' W 080°06'3 5.6
2018-Jan-19 19:31N 25°47' W 080°07'2 3.7
2018-Jan-19 19:00N 25°46' W 080°08'0 0.3
2018-Jan-19 18:19N 25°46' W 080°08'0 0.0
2018-Jan-19 17:52N 25°46' W 080°08'0 0.0
2018-Jan-19 17:22N 25°46' W 080°08'  
2018-Jan-11 03:55N 25°46' W 080°08'0 0.0
2018-Jan-11 03:10N 25°46' W 080°08'0 0.0
2018-Jan-11 02:37N 25°46' W 080°08'0 0.0
2018-Jan-11 02:25N 25°46' W 080°08'0 0.0
2018-Jan-11 01:58N 25°46' W 080°08'0 0.0
2018-Jan-11 01:25N 25°46' W 080°08'0 0.0
2018-Jan-11 00:58N 25°46' W 080°08'0 0.0
2018-Jan-11 00:25N 25°46' W 080°08'0 0.0
2018-Jan-10 23:58N 25°46' W 080°08'0 0.0
2018-Jan-10 23:13N 25°46' W 080°08'0 0.0
2018-Jan-10 22:58N 25°46' W 080°08'0 0.0
2018-Jan-10 22:25N 25°46' W 080°08'0 0.0
2018-Jan-10 21:58N 25°46' W 080°08'  

Dump ship's entire track history